sensor_id;sensor_type;location;lat;lon;timestamp;temperature;humidity
42905;DHT22;28550;51.228;4.528;2022-08-19T00:01:12;18.50;97.60
42905;DHT22;28550;51.228;4.528;2022-08-19T00:03:38;18.40;97.80
42905;DHT22;28550;51.228;4.528;2022-08-19T00:06:07;18.40;98.90
42905;DHT22;28550;51.228;4.528;2022-08-19T00:08:34;18.40;97.90
42905;DHT22;28550;51.228;4.528;2022-08-19T00:10:59;18.30;97.70
42905;DHT22;28550;51.228;4.528;2022-08-19T00:13:25;18.30;98.00
42905;DHT22;28550;51.228;4.528;2022-08-19T00:15:51;18.30;98.00
42905;DHT22;28550;51.228;4.528;2022-08-19T00:18:17;18.20;98.00
42905;DHT22;28550;51.228;4.528;2022-08-19T00:20:43;18.20;98.30
42905;DHT22;28550;51.228;4.528;2022-08-19T00:23:08;18.20;97.50
42905;DHT22;28550;51.228;4.528;2022-08-19T00:25:37;18.20;97.80
42905;DHT22;28550;51.228;4.528;2022-08-19T00:28:03;18.10;98.30
42905;DHT22;28550;51.228;4.528;2022-08-19T00:30:28;18.20;98.90
42905;DHT22;28550;51.228;4.528;2022-08-19T00:32:54;18.10;97.70
42905;DHT22;28550;51.228;4.528;2022-08-19T00:35:20;18.10;97.70
42905;DHT22;28550;51.228;4.528;2022-08-19T00:37:47;18.10;98.90
42905;DHT22;28550;51.228;4.528;2022-08-19T00:40:12;18.10;98.70
42905;DHT22;28550;51.228;4.528;2022-08-19T00:42:38;18.10;97.80
42905;DHT22;28550;51.228;4.528;2022-08-19T00:45:05;18.00;98.80
42905;DHT22;28550;51.228;4.528;2022-08-19T00:47:34;18.10;99.10
42905;DHT22;28550;51.228;4.528;2022-08-19T00:49:59;18.00;97.40
42905;DHT22;28550;51.228;4.528;2022-08-19T00:52:44;18.00;97.80
42905;DHT22;28550;51.228;4.528;2022-08-19T00:55:17;18.00;99.40
42905;DHT22;28550;51.228;4.528;2022-08-19T00:57:48;18.00;99.50
42905;DHT22;28550;51.228;4.528;2022-08-19T01:00:17;18.00;98.90
42905;DHT22;28550;51.228;4.528;2022-08-19T01:02:45;17.90;99.20
42905;DHT22;28550;51.228;4.528;2022-08-19T01:05:13;17.90;99.00
42905;DHT22;28550;51.228;4.528;2022-08-19T01:07:40;17.90;99.20
42905;DHT22;28550;51.228;4.528;2022-08-19T01:10:07;17.90;99.00
42905;DHT22;28550;51.228;4.528;2022-08-19T01:12:33;17.80;99.20
42905;DHT22;28550;51.228;4.528;2022-08-19T01:14:59;17.80;99.50
42905;DHT22;28550;51.228;4.528;2022-08-19T01:17:25;17.80;97.20
42905;DHT22;28550;51.228;4.528;2022-08-19T01:19:51;17.80;98.50
42905;DHT22;28550;51.228;4.528;2022-08-19T01:24:45;17.80;99.90
42905;DHT22;28550;51.228;4.528;2022-08-19T01:27:11;17.70;98.70
42905;DHT22;28550;51.228;4.528;2022-08-19T01:29:37;17.70;98.90
42905;DHT22;28550;51.228;4.528;2022-08-19T01:32:03;17.80;99.90
42905;DHT22;28550;51.228;4.528;2022-08-19T01:34:29;17.80;99.90
42905;DHT22;28550;51.228;4.528;2022-08-19T01:36:54;17.70;99.50
42905;DHT22;28550;51.228;4.528;2022-08-19T01:39:21;17.70;99.70
42905;DHT22;28550;51.228;4.528;2022-08-19T01:41:48;17.70;99.90
42905;DHT22;28550;51.228;4.528;2022-08-19T01:44:14;17.70;99.90
42905;DHT22;28550;51.228;4.528;2022-08-19T01:46:41;17.80;99.90
42905;DHT22;28550;51.228;4.528;2022-08-19T01:49:07;17.80;99.90
42905;DHT22;28550;51.228;4.528;2022-08-19T01:51:33;17.80;99.60
42905;DHT22;28550;51.228;4.528;2022-08-19T01:53:58;17.80;99.50
42905;DHT22;28550;51.228;4.528;2022-08-19T01:56:24;17.80;99.60
42905;DHT22;28550;51.228;4.528;2022-08-19T01:58:55;17.70;99.70
42905;DHT22;28550;51.228;4.528;2022-08-19T02:01:22;17.70;99.90
42905;DHT22;28550;51.228;4.528;2022-08-19T02:03:47;17.70;99.70
42905;DHT22;28550;51.228;4.528;2022-08-19T02:06:13;17.80;99.70
42905;DHT22;28550;51.228;4.528;2022-08-19T02:08:39;17.70;99.70
42905;DHT22;28550;51.228;4.528;2022-08-19T02:11:05;17.70;99.20
42905;DHT22;28550;51.228;4.528;2022-08-19T02:13:31;17.70;99.90
42905;DHT22;28550;51.228;4.528;2022-08-19T02:15:57;17.70;99.90
42905;DHT22;28550;51.228;4.528;2022-08-19T02:18:25;17.70;99.70
42905;DHT22;28550;51.228;4.528;2022-08-19T02:20:51;17.70;99.90
42905;DHT22;28550;51.228;4.528;2022-08-19T02:23:17;17.80;99.90
42905;DHT22;28550;51.228;4.528;2022-08-19T02:25:44;17.80;99.70
42905;DHT22;28550;51.228;4.528;2022-08-19T02:30:38;18.00;98.80
42905;DHT22;28550;51.228;4.528;2022-08-19T02:33:04;18.00;97.50
42905;DHT22;28550;51.228;4.528;2022-08-19T02:35:30;17.90;98.50
42905;DHT22;28550;51.228;4.528;2022-08-19T02:37:55;18.00;97.20
42905;DHT22;28550;51.228;4.528;2022-08-19T02:40:39;18.00;96.30
42905;DHT22;28550;51.228;4.528;2022-08-19T02:43:06;17.90;95.20
42905;DHT22;28550;51.228;4.528;2022-08-19T02:45:33;17.80;97.30
42905;DHT22;28550;51.228;4.528;2022-08-19T02:47:59;17.80;97.50
42905;DHT22;28550;51.228;4.528;2022-08-19T02:50:25;17.70;96.50
42905;DHT22;28550;51.228;4.528;2022-08-19T02:52:50;17.60;97.30
42905;DHT22;28550;51.228;4.528;2022-08-19T02:55:16;17.60;97.40
42905;DHT22;28550;51.228;4.528;2022-08-19T02:57:42;17.60;97.10
42905;DHT22;28550;51.228;4.528;2022-08-19T03:00:07;17.60;96.90
42905;DHT22;28550;51.228;4.528;2022-08-19T03:02:35;17.60;97.70
42905;DHT22;28550;51.228;4.528;2022-08-19T03:05:02;17.60;95.80
42905;DHT22;28550;51.228;4.528;2022-08-19T03:07:28;17.70;97.40
42905;DHT22;28550;51.228;4.528;2022-08-19T03:09:53;17.60;95.90
42905;DHT22;28550;51.228;4.528;2022-08-19T03:12:19;17.60;96.20
42905;DHT22;28550;51.228;4.528;2022-08-19T03:14:44;17.50;97.40
42905;DHT22;28550;51.228;4.528;2022-08-19T03:17:11;17.60;97.70
42905;DHT22;28550;51.228;4.528;2022-08-19T03:19:38;17.50;96.70
42905;DHT22;28550;51.228;4.528;2022-08-19T03:22:03;17.40;97.10
42905;DHT22;28550;51.228;4.528;2022-08-19T03:24:30;17.40;97.40
42905;DHT22;28550;51.228;4.528;2022-08-19T03:26:56;17.40;98.50
42905;DHT22;28550;51.228;4.528;2022-08-19T03:29:28;17.40;99.00
42905;DHT22;28550;51.228;4.528;2022-08-19T03:32:01;17.50;97.90
42905;DHT22;28550;51.228;4.528;2022-08-19T03:34:37;17.40;98.90
42905;DHT22;28550;51.228;4.528;2022-08-19T03:37:07;17.60;97.40
42905;DHT22;28550;51.228;4.528;2022-08-19T03:39:33;17.70;97.80
42905;DHT22;28550;51.228;4.528;2022-08-19T03:42:00;17.60;97.50
42905;DHT22;28550;51.228;4.528;2022-08-19T03:44:27;17.50;97.00
42905;DHT22;28550;51.228;4.528;2022-08-19T03:46:56;17.50;98.60
42905;DHT22;28550;51.228;4.528;2022-08-19T03:49:22;17.60;97.50
42905;DHT22;28550;51.228;4.528;2022-08-19T03:51:49;17.70;96.90
42905;DHT22;28550;51.228;4.528;2022-08-19T03:54:16;17.70;96.90
42905;DHT22;28550;51.228;4.528;2022-08-19T03:56:43;17.70;95.90
42905;DHT22;28550;51.228;4.528;2022-08-19T03:59:10;17.70;96.20
42905;DHT22;28550;51.228;4.528;2022-08-19T04:01:39;17.60;96.20
42905;DHT22;28550;51.228;4.528;2022-08-19T04:04:05;17.60;97.60
42905;DHT22;28550;51.228;4.528;2022-08-19T04:06:32;17.50;98.10
42905;DHT22;28550;51.228;4.528;2022-08-19T04:08:58;17.50;97.40
42905;DHT22;28550;51.228;4.528;2022-08-19T04:11:29;17.50;97.60
42905;DHT22;28550;51.228;4.528;2022-08-19T04:13:55;17.50;97.00
42905;DHT22;28550;51.228;4.528;2022-08-19T04:16:22;17.70;96.70
42905;DHT22;28550;51.228;4.528;2022-08-19T04:18:48;17.70;96.70
42905;DHT22;28550;51.228;4.528;2022-08-19T04:21:16;17.60;95.00
42905;DHT22;28550;51.228;4.528;2022-08-19T04:23:42;17.60;96.90
42905;DHT22;28550;51.228;4.528;2022-08-19T04:26:17;17.60;95.50
42905;DHT22;28550;51.228;4.528;2022-08-19T04:28:44;17.60;97.60
42905;DHT22;28550;51.228;4.528;2022-08-19T04:31:18;17.70;96.60
42905;DHT22;28550;51.228;4.528;2022-08-19T04:33:44;17.70;96.80
42905;DHT22;28550;51.228;4.528;2022-08-19T04:36:21;17.60;94.50
42905;DHT22;28550;51.228;4.528;2022-08-19T04:38:48;17.70;96.70
42905;DHT22;28550;51.228;4.528;2022-08-19T04:41:14;17.60;96.10
42905;DHT22;28550;51.228;4.528;2022-08-19T04:43:58;17.50;96.40
42905;DHT22;28550;51.228;4.528;2022-08-19T04:46:24;17.50;95.90
42905;DHT22;28550;51.228;4.528;2022-08-19T04:48:54;17.40;96.20
42905;DHT22;28550;51.228;4.528;2022-08-19T04:51:21;17.40;97.70
42905;DHT22;28550;51.228;4.528;2022-08-19T04:53:47;17.40;97.70
42905;DHT22;28550;51.228;4.528;2022-08-19T04:56:14;17.40;96.00
42905;DHT22;28550;51.228;4.528;2022-08-19T04:58:40;17.40;97.90
42905;DHT22;28550;51.228;4.528;2022-08-19T05:01:08;17.40;97.90
42905;DHT22;28550;51.228;4.528;2022-08-19T05:03:35;17.40;97.70
42905;DHT22;28550;51.228;4.528;2022-08-19T05:06:08;17.60;96.30
42905;DHT22;28550;51.228;4.528;2022-08-19T05:08:36;17.50;97.90
42905;DHT22;28550;51.228;4.528;2022-08-19T05:11:07;17.50;97.50
42905;DHT22;28550;51.228;4.528;2022-08-19T05:13:33;17.50;97.90
42905;DHT22;28550;51.228;4.528;2022-08-19T05:15:59;17.40;96.90
42905;DHT22;28550;51.228;4.528;2022-08-19T05:18:26;17.40;96.90
42905;DHT22;28550;51.228;4.528;2022-08-19T05:21:11;17.50;99.00
42905;DHT22;28550;51.228;4.528;2022-08-19T05:23:55;17.50;98.30
42905;DHT22;28550;51.228;4.528;2022-08-19T05:26:21;17.60;97.40
42905;DHT22;28550;51.228;4.528;2022-08-19T05:28:47;17.60;97.50
42905;DHT22;28550;51.228;4.528;2022-08-19T05:31:13;17.70;97.70
42905;DHT22;28550;51.228;4.528;2022-08-19T05:33:38;17.70;96.20
42905;DHT22;28550;51.228;4.528;2022-08-19T05:36:05;17.80;96.20
42905;DHT22;28550;51.228;4.528;2022-08-19T05:38:35;17.80;96.90
42905;DHT22;28550;51.228;4.528;2022-08-19T05:41:05;17.80;96.50
42905;DHT22;28550;51.228;4.528;2022-08-19T05:43:31;17.90;96.60
42905;DHT22;28550;51.228;4.528;2022-08-19T05:45:59;17.90;94.20
42905;DHT22;28550;51.228;4.528;2022-08-19T05:48:25;17.90;95.60
42905;DHT22;28550;51.228;4.528;2022-08-19T05:50:51;18.10;93.40
42905;DHT22;28550;51.228;4.528;2022-08-19T05:53:17;18.10;93.60
42905;DHT22;28550;51.228;4.528;2022-08-19T05:55:46;18.20;93.80
42905;DHT22;28550;51.228;4.528;2022-08-19T05:58:11;18.30;93.80
42905;DHT22;28550;51.228;4.528;2022-08-19T06:00:37;18.30;93.70
42905;DHT22;28550;51.228;4.528;2022-08-19T06:03:03;18.30;94.20
42905;DHT22;28550;51.228;4.528;2022-08-19T06:05:29;18.40;93.90
42905;DHT22;28550;51.228;4.528;2022-08-19T06:07:57;18.60;92.00
42905;DHT22;28550;51.228;4.528;2022-08-19T06:10:25;18.80;90.00
42905;DHT22;28550;51.228;4.528;2022-08-19T06:12:51;19.10;85.40
42905;DHT22;28550;51.228;4.528;2022-08-19T06:15:19;19.10;83.80
42905;DHT22;28550;51.228;4.528;2022-08-19T06:17:45;19.30;84.40
42905;DHT22;28550;51.228;4.528;2022-08-19T06:20:12;19.40;76.80
42905;DHT22;28550;51.228;4.528;2022-08-19T06:22:46;19.60;73.90
42905;DHT22;28550;51.228;4.528;2022-08-19T06:25:12;19.70;68.00
42905;DHT22;28550;51.228;4.528;2022-08-19T06:27:39;19.80;69.20
42905;DHT22;28550;51.228;4.528;2022-08-19T06:30:07;19.90;62.70
42905;DHT22;28550;51.228;4.528;2022-08-19T06:32:35;19.80;63.60
42905;DHT22;28550;51.228;4.528;2022-08-19T06:35:00;19.90;62.60
42905;DHT22;28550;51.228;4.528;2022-08-19T06:37:27;20.00;64.90
42905;DHT22;28550;51.228;4.528;2022-08-19T06:39:53;20.00;67.50
42905;DHT22;28550;51.228;4.528;2022-08-19T06:42:18;20.10;59.90
42905;DHT22;28550;51.228;4.528;2022-08-19T06:44:45;20.10;52.80
42905;DHT22;28550;51.228;4.528;2022-08-19T06:47:15;20.10;61.70
42905;DHT22;28550;51.228;4.528;2022-08-19T06:49:41;20.10;61.90
42905;DHT22;28550;51.228;4.528;2022-08-19T06:52:07;20.10;58.50
42905;DHT22;28550;51.228;4.528;2022-08-19T06:54:33;20.20;54.40
42905;DHT22;28550;51.228;4.528;2022-08-19T06:57:03;20.20;52.10
42905;DHT22;28550;51.228;4.528;2022-08-19T06:59:29;20.20;60.60
42905;DHT22;28550;51.228;4.528;2022-08-19T07:01:57;20.20;59.80
42905;DHT22;28550;51.228;4.528;2022-08-19T07:04:28;20.10;62.80
42905;DHT22;28550;51.228;4.528;2022-08-19T07:06:58;20.10;61.10
42905;DHT22;28550;51.228;4.528;2022-08-19T07:09:25;20.20;67.80
42905;DHT22;28550;51.228;4.528;2022-08-19T07:11:52;20.30;67.20
42905;DHT22;28550;51.228;4.528;2022-08-19T07:14:18;20.40;66.20
42905;DHT22;28550;51.228;4.528;2022-08-19T07:16:45;20.60;58.00
42905;DHT22;28550;51.228;4.528;2022-08-19T07:19:11;20.90;54.20
42905;DHT22;28550;51.228;4.528;2022-08-19T07:21:36;21.10;39.10
42905;DHT22;28550;51.228;4.528;2022-08-19T07:24:02;21.30;35.40
42905;DHT22;28550;51.228;4.528;2022-08-19T07:26:29;21.40;33.40
42905;DHT22;28550;51.228;4.528;2022-08-19T07:28:57;21.50;25.30
42905;DHT22;28550;51.228;4.528;2022-08-19T07:31:27;21.60;18.30
42905;DHT22;28550;51.228;4.528;2022-08-19T07:37:12;21.50;24.00
42905;DHT22;28550;51.228;4.528;2022-08-19T07:39:40;21.30;31.90
42905;DHT22;28550;51.228;4.528;2022-08-19T07:42:10;21.30;32.50
42905;DHT22;28550;51.228;4.528;2022-08-19T07:44:38;21.30;31.10
42905;DHT22;28550;51.228;4.528;2022-08-19T07:47:06;21.30;25.80
42905;DHT22;28550;51.228;4.528;2022-08-19T07:49:32;21.30;38.70
42905;DHT22;28550;51.228;4.528;2022-08-19T07:51:59;21.40;33.50
42905;DHT22;28550;51.228;4.528;2022-08-19T07:54:28;21.60;22.50
42905;DHT22;28550;51.228;4.528;2022-08-19T07:56:57;21.60;24.50
42905;DHT22;28550;51.228;4.528;2022-08-19T07:59:25;21.60;21.80
42905;DHT22;28550;51.228;4.528;2022-08-19T08:01:53;21.70;22.70
42905;DHT22;28550;51.228;4.528;2022-08-19T08:04:20;21.90;16.80
42905;DHT22;28550;51.228;4.528;2022-08-19T08:07:05;22.00;16.40
42905;DHT22;28550;51.228;4.528;2022-08-19T08:09:52;22.10;11.70
42905;DHT22;28550;51.228;4.528;2022-08-19T08:12:19;22.00;7.50
42905;DHT22;28550;51.228;4.528;2022-08-19T08:14:48;22.00;13.80
42905;DHT22;28550;51.228;4.528;2022-08-19T08:17:18;21.70;19.40
42905;DHT22;28550;51.228;4.528;2022-08-19T08:19:44;21.80;24.10
42905;DHT22;28550;51.228;4.528;2022-08-19T08:25:23;21.90;24.10
42905;DHT22;28550;51.228;4.528;2022-08-19T08:27:54;22.00;25.10
42905;DHT22;28550;51.228;4.528;2022-08-19T08:30:26;22.10;22.80
42905;DHT22;28550;51.228;4.528;2022-08-19T08:32:57;22.30;14.70
42905;DHT22;28550;51.228;4.528;2022-08-19T08:35:29;22.30;15.60
42905;DHT22;28550;51.228;4.528;2022-08-19T08:37:57;22.60;8.30
42905;DHT22;28550;51.228;4.528;2022-08-19T08:42:54;23.00;1.00
42905;DHT22;28550;51.228;4.528;2022-08-19T08:45:27;23.20;1.00
42905;DHT22;28550;51.228;4.528;2022-08-19T08:47:55;23.40;1.00
42905;DHT22;28550;51.228;4.528;2022-08-19T08:50:43;23.60;1.00
42905;DHT22;28550;51.228;4.528;2022-08-19T08:53:10;23.70;1.00
42905;DHT22;28550;51.228;4.528;2022-08-19T08:55:39;23.70;1.00
42905;DHT22;28550;51.228;4.528;2022-08-19T08:58:13;23.60;1.00
42905;DHT22;28550;51.228;4.528;2022-08-19T09:00:45;23.50;1.00
42905;DHT22;28550;51.228;4.528;2022-08-19T09:03:20;23.40;1.00
42905;DHT22;28550;51.228;4.528;2022-08-19T09:08:28;23.40;1.00
42905;DHT22;28550;51.228;4.528;2022-08-19T09:11:03;23.30;1.00
42905;DHT22;28550;51.228;4.528;2022-08-19T09:13:44;23.20;1.00
42905;DHT22;28550;51.228;4.528;2022-08-19T09:16:16;23.10;1.00
42905;DHT22;28550;51.228;4.528;2022-08-19T09:18:47;22.90;1.00
42905;DHT22;28550;51.228;4.528;2022-08-19T09:21:14;22.70;8.50
42905;DHT22;28550;51.228;4.528;2022-08-19T09:23:48;22.60;16.60
42905;DHT22;28550;51.228;4.528;2022-08-19T09:26:17;22.50;19.90
42905;DHT22;28550;51.228;4.528;2022-08-19T09:28:44;22.50;20.80
42905;DHT22;28550;51.228;4.528;2022-08-19T09:31:10;22.50;20.70
42905;DHT22;28550;51.228;4.528;2022-08-19T09:33:36;22.50;19.10
42905;DHT22;28550;51.228;4.528;2022-08-19T09:36:06;22.30;21.30
42905;DHT22;28550;51.228;4.528;2022-08-19T09:38:32;22.20;32.40
42905;DHT22;28550;51.228;4.528;2022-08-19T09:41:03;22.20;33.00
42905;DHT22;28550;51.228;4.528;2022-08-19T09:43:34;22.10;41.40
42905;DHT22;28550;51.228;4.528;2022-08-19T09:46:19;22.20;35.90
42905;DHT22;28550;51.228;4.528;2022-08-19T09:48:49;22.40;27.20
42905;DHT22;28550;51.228;4.528;2022-08-19T09:51:22;22.40;29.30
42905;DHT22;28550;51.228;4.528;2022-08-19T09:53:52;22.40;29.20
42905;DHT22;28550;51.228;4.528;2022-08-19T09:56:19;22.40;28.60
42905;DHT22;28550;51.228;4.528;2022-08-19T09:58:51;22.40;30.00
42905;DHT22;28550;51.228;4.528;2022-08-19T10:01:18;22.50;27.90
42905;DHT22;28550;51.228;4.528;2022-08-19T10:03:46;22.50;29.40
42905;DHT22;28550;51.228;4.528;2022-08-19T10:06:12;22.50;23.40
42905;DHT22;28550;51.228;4.528;2022-08-19T10:08:40;22.50;21.70
42905;DHT22;28550;51.228;4.528;2022-08-19T10:11:05;22.40;30.50
42905;DHT22;28550;51.228;4.528;2022-08-19T10:13:34;22.50;24.80
42905;DHT22;28550;51.228;4.528;2022-08-19T10:16:10;22.40;28.70
42905;DHT22;28550;51.228;4.528;2022-08-19T10:18:42;22.40;34.40
42905;DHT22;28550;51.228;4.528;2022-08-19T10:21:10;22.60;32.20
42905;DHT22;28550;51.228;4.528;2022-08-19T10:23:37;22.60;30.80
42905;DHT22;28550;51.228;4.528;2022-08-19T10:26:09;22.80;23.10
42905;DHT22;28550;51.228;4.528;2022-08-19T10:28:35;22.80;19.50
42905;DHT22;28550;51.228;4.528;2022-08-19T10:31:05;22.90;21.50
42905;DHT22;28550;51.228;4.528;2022-08-19T10:33:35;23.10;12.90
42905;DHT22;28550;51.228;4.528;2022-08-19T10:36:02;23.10;17.70
42905;DHT22;28550;51.228;4.528;2022-08-19T10:38:29;23.20;10.20
42905;DHT22;28550;51.228;4.528;2022-08-19T10:40:56;23.40;4.50
42905;DHT22;28550;51.228;4.528;2022-08-19T10:43:25;23.60;1.00
42905;DHT22;28550;51.228;4.528;2022-08-19T10:45:52;23.70;1.00
42905;DHT22;28550;51.228;4.528;2022-08-19T10:48:20;23.80;1.00
42905;DHT22;28550;51.228;4.528;2022-08-19T10:50:47;23.70;1.00
42905;DHT22;28550;51.228;4.528;2022-08-19T10:53:33;23.60;1.00
42905;DHT22;28550;51.228;4.528;2022-08-19T10:56:01;23.50;1.00
42905;DHT22;28550;51.228;4.528;2022-08-19T10:58:45;23.40;1.00
42905;DHT22;28550;51.228;4.528;2022-08-19T11:01:12;23.30;1.00
42905;DHT22;28550;51.228;4.528;2022-08-19T11:03:40;23.30;1.00
42905;DHT22;28550;51.228;4.528;2022-08-19T11:06:06;23.40;1.00
42905;DHT22;28550;51.228;4.528;2022-08-19T11:08:35;23.40;1.00
42905;DHT22;28550;51.228;4.528;2022-08-19T11:11:03;23.50;1.00
42905;DHT22;28550;51.228;4.528;2022-08-19T11:13:33;23.50;1.00
42905;DHT22;28550;51.228;4.528;2022-08-19T11:16:09;23.60;1.00
42905;DHT22;28550;51.228;4.528;2022-08-19T11:18:39;23.70;1.00
42905;DHT22;28550;51.228;4.528;2022-08-19T11:21:12;23.70;1.00
42905;DHT22;28550;51.228;4.528;2022-08-19T11:23:39;23.80;1.00
42905;DHT22;28550;51.228;4.528;2022-08-19T11:26:04;23.70;1.00
42905;DHT22;28550;51.228;4.528;2022-08-19T11:28:30;23.80;1.00
42905;DHT22;28550;51.228;4.528;2022-08-19T11:30:55;23.80;1.00
42905;DHT22;28550;51.228;4.528;2022-08-19T11:33:21;24.00;1.00
42905;DHT22;28550;51.228;4.528;2022-08-19T11:35:47;24.10;1.00
42905;DHT22;28550;51.228;4.528;2022-08-19T11:38:15;23.80;1.00
42905;DHT22;28550;51.228;4.528;2022-08-19T11:40:41;23.80;1.00
42905;DHT22;28550;51.228;4.528;2022-08-19T11:43:07;24.00;1.00
42905;DHT22;28550;51.228;4.528;2022-08-19T11:45:33;24.00;1.00
42905;DHT22;28550;51.228;4.528;2022-08-19T11:47:59;24.50;1.00
42905;DHT22;28550;51.228;4.528;2022-08-19T11:50:24;25.00;1.00
42905;DHT22;28550;51.228;4.528;2022-08-19T11:52:53;25.20;99.90
42905;DHT22;28550;51.228;4.528;2022-08-19T11:55:19;25.40;1.00
42905;DHT22;28550;51.228;4.528;2022-08-19T11:57:45;25.60;1.00
42905;DHT22;28550;51.228;4.528;2022-08-19T12:00:12;25.80;99.90
42905;DHT22;28550;51.228;4.528;2022-08-19T12:02:38;26.10;99.90
42905;DHT22;28550;51.228;4.528;2022-08-19T12:05:04;26.50;1.00
42905;DHT22;28550;51.228;4.528;2022-08-19T12:07:30;26.50;1.00
42905;DHT22;28550;51.228;4.528;2022-08-19T12:09:59;26.70;99.90
42905;DHT22;28550;51.228;4.528;2022-08-19T12:12:26;26.80;99.90
42905;DHT22;28550;51.228;4.528;2022-08-19T12:14:52;26.80;99.90
42905;DHT22;28550;51.228;4.528;2022-08-19T12:17:22;26.80;1.00
42905;DHT22;28550;51.228;4.528;2022-08-19T12:19:48;26.80;99.90
42905;DHT22;28550;51.228;4.528;2022-08-19T12:22:13;26.70;99.90
42905;DHT22;28550;51.228;4.528;2022-08-19T12:24:41;26.60;99.90
42905;DHT22;28550;51.228;4.528;2022-08-19T12:27:07;26.60;1.00
42905;DHT22;28550;51.228;4.528;2022-08-19T12:29:33;26.60;99.90
42905;DHT22;28550;51.228;4.528;2022-08-19T12:31:58;26.50;1.00
42905;DHT22;28550;51.228;4.528;2022-08-19T12:34:28;26.60;1.00
42905;DHT22;28550;51.228;4.528;2022-08-19T12:37:03;27.10;1.00
42905;DHT22;28550;51.228;4.528;2022-08-19T12:39:33;27.80;6.90
42905;DHT22;28550;51.228;4.528;2022-08-19T12:41:59;28.60;99.90
42905;DHT22;28550;51.228;4.528;2022-08-19T12:44:24;28.90;99.90
42905;DHT22;28550;51.228;4.528;2022-08-19T12:46:50;29.10;99.90
42905;DHT22;28550;51.228;4.528;2022-08-19T12:49:18;29.10;1.00
42905;DHT22;28550;51.228;4.528;2022-08-19T12:51:46;28.90;99.90
42905;DHT22;28550;51.228;4.528;2022-08-19T12:54:14;28.60;99.90
42905;DHT22;28550;51.228;4.528;2022-08-19T12:56:47;28.50;99.90
42905;DHT22;28550;51.228;4.528;2022-08-19T12:59:13;28.40;99.90
42905;DHT22;28550;51.228;4.528;2022-08-19T13:01:43;28.30;99.90
42905;DHT22;28550;51.228;4.528;2022-08-19T13:04:09;28.10;99.90
42905;DHT22;28550;51.228;4.528;2022-08-19T13:06:40;28.00;99.90
42905;DHT22;28550;51.228;4.528;2022-08-19T13:09:06;27.80;99.90
42905;DHT22;28550;51.228;4.528;2022-08-19T13:11:31;27.60;99.90
42905;DHT22;28550;51.228;4.528;2022-08-19T13:14:00;27.60;1.00
42905;DHT22;28550;51.228;4.528;2022-08-19T13:16:26;27.90;99.90
42905;DHT22;28550;51.228;4.528;2022-08-19T13:18:53;27.90;99.90
42905;DHT22;28550;51.228;4.528;2022-08-19T13:21:19;27.70;99.90
42905;DHT22;28550;51.228;4.528;2022-08-19T13:23:48;27.70;1.00
42905;DHT22;28550;51.228;4.528;2022-08-19T13:26:16;27.90;1.00
42905;DHT22;28550;51.228;4.528;2022-08-19T13:28:43;28.00;99.90
42905;DHT22;28550;51.228;4.528;2022-08-19T13:31:28;28.00;99.90
42905;DHT22;28550;51.228;4.528;2022-08-19T13:34:14;27.90;99.90
42905;DHT22;28550;51.228;4.528;2022-08-19T13:36:40;27.90;99.90
42905;DHT22;28550;51.228;4.528;2022-08-19T13:39:06;28.10;99.90
42905;DHT22;28550;51.228;4.528;2022-08-19T13:41:48;28.90;99.90
42905;DHT22;28550;51.228;4.528;2022-08-19T13:44:17;29.30;99.90
42905;DHT22;28550;51.228;4.528;2022-08-19T13:46:46;29.60;99.90
42905;DHT22;28550;51.228;4.528;2022-08-19T13:49:24;30.10;99.90
42905;DHT22;28550;51.228;4.528;2022-08-19T13:51:53;29.90;1.00
42905;DHT22;28550;51.228;4.528;2022-08-19T13:54:20;29.70;1.00
42905;DHT22;28550;51.228;4.528;2022-08-19T13:57:03;29.80;1.00
42905;DHT22;28550;51.228;4.528;2022-08-19T13:59:32;29.60;1.00
42905;DHT22;28550;51.228;4.528;2022-08-19T14:01:59;29.20;1.00
42905;DHT22;28550;51.228;4.528;2022-08-19T14:07:24;32.60;99.90
42905;DHT22;28550;51.228;4.528;2022-08-19T14:10:02;32.60;99.90
42905;DHT22;28550;51.228;4.528;2022-08-19T14:12:36;33.10;99.90
42905;DHT22;28550;51.228;4.528;2022-08-19T14:15:21;32.50;99.90
42905;DHT22;28550;51.228;4.528;2022-08-19T14:17:57;32.40;99.90
42905;DHT22;28550;51.228;4.528;2022-08-19T14:20:36;32.60;99.90
42905;DHT22;28550;51.228;4.528;2022-08-19T14:23:02;32.10;99.90
42905;DHT22;28550;51.228;4.528;2022-08-19T14:25:33;32.00;99.90
42905;DHT22;28550;51.228;4.528;2022-08-19T14:28:00;31.90;99.90
42905;DHT22;28550;51.228;4.528;2022-08-19T14:30:30;31.10;99.90
42905;DHT22;28550;51.228;4.528;2022-08-19T14:32:57;30.80;99.90
42905;DHT22;28550;51.228;4.528;2022-08-19T14:35:28;30.20;99.90
42905;DHT22;28550;51.228;4.528;2022-08-19T14:37:56;29.60;99.90
42905;DHT22;28550;51.228;4.528;2022-08-19T14:40:24;28.90;99.90
42905;DHT22;28550;51.228;4.528;2022-08-19T14:42:55;28.30;99.90
42905;DHT22;28550;51.228;4.528;2022-08-19T14:45:25;27.70;99.90
42905;DHT22;28550;51.228;4.528;2022-08-19T14:47:53;27.30;99.90
42905;DHT22;28550;51.228;4.528;2022-08-19T14:50:18;27.10;99.90
42905;DHT22;28550;51.228;4.528;2022-08-19T14:52:46;26.80;1.00
42905;DHT22;28550;51.228;4.528;2022-08-19T14:55:15;26.50;1.00
42905;DHT22;28550;51.228;4.528;2022-08-19T14:57:51;26.10;99.90
42905;DHT22;28550;51.228;4.528;2022-08-19T15:00:19;25.70;1.00
42905;DHT22;28550;51.228;4.528;2022-08-19T15:02:46;25.00;99.90
42905;DHT22;28550;51.228;4.528;2022-08-19T15:05:13;24.60;99.90
42905;DHT22;28550;51.228;4.528;2022-08-19T15:07:39;24.30;1.00
42905;DHT22;28550;51.228;4.528;2022-08-19T15:10:05;23.70;1.00
42905;DHT22;28550;51.228;4.528;2022-08-19T15:12:34;23.30;19.40
42905;DHT22;28550;51.228;4.528;2022-08-19T15:15:06;23.00;41.30
42905;DHT22;28550;51.228;4.528;2022-08-19T15:17:41;22.50;61.30
42905;DHT22;28550;51.228;4.528;2022-08-19T15:20:16;22.10;73.10
42905;DHT22;28550;51.228;4.528;2022-08-19T15:22:43;21.80;85.70
42905;DHT22;28550;51.228;4.528;2022-08-19T15:53:21;22.10;97.30
42905;DHT22;28550;51.228;4.528;2022-08-19T15:56:03;22.60;95.20
42905;DHT22;28550;51.228;4.528;2022-08-19T16:12:30;24.60;45.90
42905;DHT22;28550;51.228;4.528;2022-08-19T16:15:15;24.70;50.90
42905;DHT22;28550;51.228;4.528;2022-08-19T16:17:56;24.70;30.90
42905;DHT22;28550;51.228;4.528;2022-08-19T16:20:48;24.80;25.50
42905;DHT22;28550;51.228;4.528;2022-08-19T16:23:47;25.20;28.80
42905;DHT22;28550;51.228;4.528;2022-08-19T16:26:36;25.70;25.80
42905;DHT22;28550;51.228;4.528;2022-08-19T16:32:19;25.30;17.70
42905;DHT22;28550;51.228;4.528;2022-08-19T16:37:27;24.80;29.20
42905;DHT22;28550;51.228;4.528;2022-08-19T16:40:06;24.90;26.80
42905;DHT22;28550;51.228;4.528;2022-08-19T16:42:50;25.10;18.60
42905;DHT22;28550;51.228;4.528;2022-08-19T16:45:18;25.40;1.00
42905;DHT22;28550;51.228;4.528;2022-08-19T16:47:46;25.50;1.00
42905;DHT22;28550;51.228;4.528;2022-08-19T16:50:29;25.70;1.00
42905;DHT22;28550;51.228;4.528;2022-08-19T16:52:58;25.70;1.00